Robert G. Stone, Jr. — WDD4596 — position and weather

sailwx.info

Track history (hours):
 
Tides and Currents Weather Stations Pressure Air Temp Water Temp Dewpoint Dewpoint Depression Visibility Wind Speed Wind Dir Waves Ship Positions

Robert G. Stone, Jr.

Owner: Kirby Inland Marine, LP, Houston, TX. More information available from US FCC via Universal Licensing System and Coast Guard Vessel Documentation Center.

Last reported at 2016-Jun-27 21:33 UTC. Time now 2016-Jun-27 22:17 UTC.
Position N 29°56' W 089°59'.

Length 27 m; draft 3.1 m.

Type: . MMSI: 367146780.

Date/timePositionNaut miles runAvg speedWind from/ knotsBaromVisibWave heightAir tempDewpointWater temp
2016-Jun-27 21:33N 29°56' W 089°59'0 0.0
2016-Jun-27 20:33N 29°56' W 089°59'0 0.0
2016-Jun-27 19:33N 29°56' W 089°59'0 0.0
2016-Jun-27 18:33N 29°56' W 089°59'0 0.0
2016-Jun-27 17:33N 29°56' W 089°59'0 0.0
2016-Jun-27 16:33N 29°56' W 089°59'0 0.0
2016-Jun-27 15:33N 29°56' W 089°59'0 0.0
2016-Jun-27 14:33N 29°56' W 089°59'0 0.0
2016-Jun-27 13:33N 29°56' W 089°59'0 0.0
2016-Jun-27 12:33N 29°56' W 089°59'0 0.0
2016-Jun-27 11:33N 29°56' W 089°59'1 1.1
2016-Jun-27 10:33N 29°55' W 089°58'1 0.7
2016-Jun-27 09:33N 29°55' W 089°59'1 1.4
2016-Jun-27 08:33N 29°54' W 089°60'0 0.0
2016-Jun-27 07:33N 29°54' W 089°60'1 0.7
2016-Jun-27 06:33N 29°53' W 090°00'3 3.2
2016-Jun-27 05:33N 29°50' W 090°02'4 3.7
2016-Jun-27 04:32N 29°47' W 090°04'4 3.0
2016-Jun-27 03:22N 29°46' W 090°08'23 3.9
2016-Jun-26 21:28N 29°34' W 090°30'5 5.5
2016-Jun-26 20:33N 29°35' W 090°36'5 5.1
2016-Jun-26 19:33N 29°36' W 090°41'3 3.5
2016-Jun-26 18:33N 29°34' W 090°44'6 6.0
2016-Jun-26 17:33N 29°32' W 090°51'54 4.8
2016-Jun-26 06:30N 29°48' W 091°49'4 4.5
2016-Jun-26 05:33N 29°51' W 091°53'6 5.5
2016-Jun-26 04:33N 29°50' W 091°60'6 5.6
2016-Jun-26 03:29N 29°48' W 092°06'4 4.4
2016-Jun-26 02:33N 29°47' W 092°11'0 0.3
2016-Jun-26 01:33N 29°47' W 092°11'0 0.0
2016-Jun-26 00:33N 29°47' W 092°11'4 4.5
2016-Jun-25 23:33N 29°48' W 092°16'5 4.9
2016-Jun-25 22:33N 29°51' W 092°21'5 4.5
2016-Jun-25 21:33N 29°53' W 092°25'27 5.3
2016-Jun-25 16:28N 29°56' W 092°56'5 4.9
2016-Jun-25 15:32N 29°56' W 093°01'4 4.3
2016-Jun-25 14:33N 29°56' W 093°06'4 4.1
2016-Jun-25 13:33N 29°57' W 093°11'5 4.6
2016-Jun-25 12:33N 30°01' W 093°14'4 4.3
2016-Jun-25 11:33N 30°05' W 093°17'3 3.0
2016-Jun-25 10:33N 30°05' W 093°20'5 4.6
2016-Jun-25 09:33N 30°04' W 093°25'6 5.9
2016-Jun-25 08:33N 30°04' W 093°32'6 5.8
2016-Jun-25 07:33N 30°04' W 093°39'6 5.8
2016-Jun-25 06:33N 30°01' W 093°45'6 6.1
2016-Jun-25 05:33N 29°58' W 093°51'8 7.6
2016-Jun-25 04:32N 29°52' W 093°56'6 5.5
2016-Jun-25 03:31N 29°48' W 094°01'28 5.3
2016-Jun-24 22:12N 29°33' W 094°28'21 4.3
2016-Jun-24 17:22N 29°29' W 094°52'7 8.4
2016-Jun-24 16:33N 29°35' W 094°56'5 5.2
2016-Jun-24 15:33N 29°37' W 095°01'0 0.2
2016-Jun-24 14:33N 29°36' W 095°01'0 0.2
2016-Jun-24 13:33N 29°37' W 095°01'0 0.3
2016-Jun-24 12:33N 29°36' W 095°01'0 0.0
2016-Jun-24 11:32N 29°36' W 095°01'0 0.0
2016-Jun-24 10:33N 29°36' W 095°01'0 0.0
2016-Jun-24 09:33N 29°36' W 095°01'0 0.0
2016-Jun-24 08:31N 29°36' W 095°01'0 0.0
2016-Jun-24 07:32N 29°36' W 095°01'0 0.0
2016-Jun-24 04:33N 29°36' W 095°01'0 0.0
2016-Jun-24 03:33N 29°36' W 095°01'0 0.0
2016-Jun-24 02:33N 29°36' W 095°01'0 0.0
2016-Jun-24 01:33N 29°36' W 095°01'0 0.0
2016-Jun-23 23:33N 29°36' W 095°01'0 0.0
2016-Jun-23 22:33N 29°36' W 095°01'0 0.0
2016-Jun-23 21:32N 29°36' W 095°01'0 0.0
2016-Jun-23 20:33N 29°36' W 095°01'0 0.0
2016-Jun-23 19:33N 29°36' W 095°01'0 0.0
2016-Jun-23 18:33N 29°36' W 095°01'0 0.0
2016-Jun-23 17:32N 29°36' W 095°01'0 0.0
2016-Jun-23 16:32N 29°36' W 095°01'0 0.0
2016-Jun-23 15:33N 29°36' W 095°01'0 0.0
2016-Jun-23 14:31N 29°36' W 095°01'0 0.0
2016-Jun-23 13:33N 29°36' W 095°01'0 0.0
2016-Jun-23 12:29N 29°36' W 095°01'0 0.0
2016-Jun-23 11:33N 29°36' W 095°01'0 0.0
2016-Jun-23 10:32N 29°36' W 095°01'0 0.0
2016-Jun-22 16:33N 29°36' W 095°01'0 0.0
2016-Jun-22 15:32N 29°36' W 095°01'0 0.4
2016-Jun-22 14:32N 29°37' W 095°01'0 0.4
2016-Jun-22 13:33N 29°36' W 095°01'0 0.0
2016-Jun-22 12:33N 29°36' W 095°01'0 0.0
2016-Jun-22 11:32N 29°36' W 095°01'0 0.0
2016-Jun-22 10:32N 29°37' W 095°01'1 0.3
2016-Jun-22 08:32N 29°37' W 095°00'7 7.1
2016-Jun-22 07:32N 29°32' W 094°54'9 8.3
2016-Jun-22 06:29N 29°25' W 094°49'58 1.4
2016-Jun-20 13:31N 29°56' W 093°52'7 7.1
2016-Jun-20 12:33N 30°00' W 093°46'8 7.7
2016-Jun-20 11:33N 30°04' W 093°38'8 7.5
2016-Jun-20 10:33N 30°04' W 093°30'7 6.9
2016-Jun-20 09:33N 30°04' W 093°22'4 3.9
2016-Jun-20 08:33N 30°05' W 093°18'2 2.1
2016-Jun-20 07:33N 30°04' W 093°16'3 3.2
2016-Jun-20 06:33N 30°01' W 093°14'5 4.6
2016-Jun-20 05:33N 29°58' W 093°11'6 6.4
2016-Jun-20 04:33N 29°56' W 093°04'7 6.8
2016-Jun-20 03:33N 29°56' W 092°56'7 7.1
2016-Jun-20 02:32N 29°58' W 092°48'21 7.1
2016-Jun-19 23:31N 29°53' W 092°24'6 5.9
2016-Jun-19 22:33N 29°50' W 092°18'6 6.1
2016-Jun-19 21:33N 29°47' W 092°12'2 2.3
2016-Jun-19 20:33N 29°47' W 092°10'6 6.4
2016-Jun-19 19:33N 29°49' W 092°03'7 6.7
2016-Jun-19 18:33N 29°51' W 091°55'48 1.5
2016-Jun-18 11:18N 30°23' W 091°14'0 0.4
2016-Jun-18 10:09N 30°22' W 091°14'0 0.7
2016-Jun-18 09:32N 30°23' W 091°14'  
Track history (hours):
 
Tides and Currents Weather Stations Pressure Air Temp Water Temp Dewpoint Dewpoint Depression Visibility Wind Speed Wind Dir Waves Ship Positions

Robert G. Stone, Jr.

Owner: Kirby Inland Marine, LP, Houston, TX. More information available from US FCC via Universal Licensing System and Coast Guard Vessel Documentation Center.

Last reported at 2016-Jun-27 21:33 UTC. Time now 2016-Jun-27 22:17 UTC.
Position N 29°56' W 089°59'.

Length 27 m; draft 3.1 m.

Type: . MMSI: 367146780.

Date/timePositionNaut miles runAvg speedWind from/ knotsBaromVisibWave heightAir tempDewpointWater temp
2016-Jun-27 21:33N 29°56' W 089°59'0 0.0
2016-Jun-27 20:33N 29°56' W 089°59'0 0.0
2016-Jun-27 19:33N 29°56' W 089°59'0 0.0
2016-Jun-27 18:33N 29°56' W 089°59'0 0.0
2016-Jun-27 17:33N 29°56' W 089°59'0 0.0
2016-Jun-27 16:33N 29°56' W 089°59'0 0.0
2016-Jun-27 15:33N 29°56' W 089°59'0 0.0
2016-Jun-27 14:33N 29°56' W 089°59'0 0.0
2016-Jun-27 13:33N 29°56' W 089°59'0 0.0
2016-Jun-27 12:33N 29°56' W 089°59'0 0.0
2016-Jun-27 11:33N 29°56' W 089°59'1 1.1
2016-Jun-27 10:33N 29°55' W 089°58'1 0.7
2016-Jun-27 09:33N 29°55' W 089°59'1 1.4
2016-Jun-27 08:33N 29°54' W 089°60'0 0.0
2016-Jun-27 07:33N 29°54' W 089°60'1 0.7
2016-Jun-27 06:33N 29°53' W 090°00'3 3.2
2016-Jun-27 05:33N 29°50' W 090°02'4 3.7
2016-Jun-27 04:32N 29°47' W 090°04'4 3.0
2016-Jun-27 03:22N 29°46' W 090°08'23 3.9
2016-Jun-26 21:28N 29°34' W 090°30'5 5.5
2016-Jun-26 20:33N 29°35' W 090°36'5 5.1
2016-Jun-26 19:33N 29°36' W 090°41'3 3.5
2016-Jun-26 18:33N 29°34' W 090°44'6 6.0
2016-Jun-26 17:33N 29°32' W 090°51'54 4.8
2016-Jun-26 06:30N 29°48' W 091°49'4 4.5
2016-Jun-26 05:33N 29°51' W 091°53'6 5.5
2016-Jun-26 04:33N 29°50' W 091°60'6 5.6
2016-Jun-26 03:29N 29°48' W 092°06'4 4.4
2016-Jun-26 02:33N 29°47' W 092°11'0 0.3
2016-Jun-26 01:33N 29°47' W 092°11'0 0.0
2016-Jun-26 00:33N 29°47' W 092°11'4 4.5
2016-Jun-25 23:33N 29°48' W 092°16'5 4.9
2016-Jun-25 22:33N 29°51' W 092°21'5 4.5
2016-Jun-25 21:33N 29°53' W 092°25'27 5.3
2016-Jun-25 16:28N 29°56' W 092°56'5 4.9
2016-Jun-25 15:32N 29°56' W 093°01'4 4.3
2016-Jun-25 14:33N 29°56' W 093°06'4 4.1
2016-Jun-25 13:33N 29°57' W 093°11'5 4.6
2016-Jun-25 12:33N 30°01' W 093°14'4 4.3
2016-Jun-25 11:33N 30°05' W 093°17'3 3.0
2016-Jun-25 10:33N 30°05' W 093°20'5 4.6
2016-Jun-25 09:33N 30°04' W 093°25'6 5.9
2016-Jun-25 08:33N 30°04' W 093°32'6 5.8
2016-Jun-25 07:33N 30°04' W 093°39'6 5.8
2016-Jun-25 06:33N 30°01' W 093°45'6 6.1
2016-Jun-25 05:33N 29°58' W 093°51'8 7.6
2016-Jun-25 04:32N 29°52' W 093°56'6 5.5
2016-Jun-25 03:31N 29°48' W 094°01'28 5.3
2016-Jun-24 22:12N 29°33' W 094°28'21 4.3
2016-Jun-24 17:22N 29°29' W 094°52'7 8.4
2016-Jun-24 16:33N 29°35' W 094°56'5 5.2
2016-Jun-24 15:33N 29°37' W 095°01'0 0.2
2016-Jun-24 14:33N 29°36' W 095°01'0 0.2
2016-Jun-24 13:33N 29°37' W 095°01'0 0.3
2016-Jun-24 12:33N 29°36' W 095°01'0 0.0
2016-Jun-24 11:32N 29°36' W 095°01'0 0.0
2016-Jun-24 10:33N 29°36' W 095°01'0 0.0
2016-Jun-24 09:33N 29°36' W 095°01'0 0.0
2016-Jun-24 08:31N 29°36' W 095°01'0 0.0
2016-Jun-24 07:32N 29°36' W 095°01'0 0.0
2016-Jun-24 04:33N 29°36' W 095°01'0 0.0
2016-Jun-24 03:33N 29°36' W 095°01'0 0.0
2016-Jun-24 02:33N 29°36' W 095°01'0 0.0
2016-Jun-24 01:33N 29°36' W 095°01'0 0.0
2016-Jun-23 23:33N 29°36' W 095°01'0 0.0
2016-Jun-23 22:33N 29°36' W 095°01'0 0.0
2016-Jun-23 21:32N 29°36' W 095°01'0 0.0
2016-Jun-23 20:33N 29°36' W 095°01'0 0.0
2016-Jun-23 19:33N 29°36' W 095°01'0 0.0
2016-Jun-23 18:33N 29°36' W 095°01'0 0.0
2016-Jun-23 17:32N 29°36' W 095°01'0 0.0
2016-Jun-23 16:32N 29°36' W 095°01'0 0.0
2016-Jun-23 15:33N 29°36' W 095°01'0 0.0
2016-Jun-23 14:31N 29°36' W 095°01'0 0.0
2016-Jun-23 13:33N 29°36' W 095°01'0 0.0
2016-Jun-23 12:29N 29°36' W 095°01'0 0.0
2016-Jun-23 11:33N 29°36' W 095°01'0 0.0
2016-Jun-23 10:32N 29°36' W 095°01'0 0.0
2016-Jun-22 16:33N 29°36' W 095°01'0 0.0
2016-Jun-22 15:32N 29°36' W 095°01'0 0.4
2016-Jun-22 14:32N 29°37' W 095°01'0 0.4
2016-Jun-22 13:33N 29°36' W 095°01'0 0.0
2016-Jun-22 12:33N 29°36' W 095°01'0 0.0
2016-Jun-22 11:32N 29°36' W 095°01'0 0.0
2016-Jun-22 10:32N 29°37' W 095°01'1 0.3
2016-Jun-22 08:32N 29°37' W 095°00'7 7.1
2016-Jun-22 07:32N 29°32' W 094°54'9 8.3
2016-Jun-22 06:29N 29°25' W 094°49'58 1.4
2016-Jun-20 13:31N 29°56' W 093°52'7 7.1
2016-Jun-20 12:33N 30°00' W 093°46'8 7.7
2016-Jun-20 11:33N 30°04' W 093°38'8 7.5
2016-Jun-20 10:33N 30°04' W 093°30'7 6.9
2016-Jun-20 09:33N 30°04' W 093°22'4 3.9
2016-Jun-20 08:33N 30°05' W 093°18'2 2.1
2016-Jun-20 07:33N 30°04' W 093°16'3 3.2
2016-Jun-20 06:33N 30°01' W 093°14'5 4.6
2016-Jun-20 05:33N 29°58' W 093°11'6 6.4
2016-Jun-20 04:33N 29°56' W 093°04'7 6.8
2016-Jun-20 03:33N 29°56' W 092°56'7 7.1
2016-Jun-20 02:32N 29°58' W 092°48'21 7.1
2016-Jun-19 23:31N 29°53' W 092°24'6 5.9
2016-Jun-19 22:33N 29°50' W 092°18'6 6.1
2016-Jun-19 21:33N 29°47' W 092°12'2 2.3
2016-Jun-19 20:33N 29°47' W 092°10'6 6.4
2016-Jun-19 19:33N 29°49' W 092°03'7 6.7
2016-Jun-19 18:33N 29°51' W 091°55'48 1.5
2016-Jun-18 11:18N 30°23' W 091°14'0 0.4
2016-Jun-18 10:09N 30°22' W 091°14'0 0.7
2016-Jun-18 09:32N 30°23' W 091°14'  

Dump ship's entire track history